createdAt,value
2023-03-06T00:00:58.655Z,100605.22
2023-03-06T00:06:01.974Z,100587.69
2023-03-06T00:11:04.935Z,100591.25
2023-03-06T00:16:08.086Z,100588.56
2023-03-06T00:21:11.062Z,100599.91
2023-03-06T00:26:13.901Z,100597.28
2023-03-06T00:31:17.972Z,100592.63
2023-03-06T00:36:20.861Z,100597.94
2023-03-06T00:41:23.719Z,100600.56
2023-03-06T00:46:26.665Z,100584.25
2023-03-06T00:51:29.463Z,100574.78
2023-03-06T00:56:32.274Z,100560.28
2023-03-06T01:01:35.196Z,100557.06
2023-03-06T01:06:38.410Z,100544.81
2023-03-06T01:11:41.264Z,100557.28
2023-03-06T01:16:44.178Z,100557.56
2023-03-06T01:21:47.045Z,100563.88
2023-03-06T01:26:50.147Z,100561.03
2023-03-06T01:31:53.506Z,100562.53
2023-03-06T01:36:56.544Z,100560.09
2023-03-06T01:41:59.354Z,100570.16
2023-03-06T01:47:02.669Z,100567.50
2023-03-06T01:52:14.784Z,100565.44
2023-03-06T01:57:22.705Z,100564.59
2023-03-06T02:02:26.392Z,100559.59
2023-03-06T02:07:30.421Z,100559.88
2023-03-06T02:12:33.837Z,100560.84
2023-03-06T02:17:37.532Z,100564.91
2023-03-06T02:23:20.087Z,100573.13
2023-03-06T02:28:24.335Z,100582.94
2023-03-06T02:33:29.598Z,100567.50
2023-03-06T02:38:37.112Z,100559.91
2023-03-06T02:43:44.030Z,100558.19
2023-03-06T02:48:47.041Z,100560.31
2023-03-06T02:53:50.163Z,100553.31
2023-03-06T02:58:53.025Z,100551.13
2023-03-06T03:03:56.382Z,100545.78
2023-03-06T03:08:59.761Z,100538.47
2023-03-06T03:14:04.059Z,100521.75
2023-03-06T03:19:07.173Z,100519.00
2023-03-06T03:24:10.411Z,100511.34
2023-03-06T03:29:13.258Z,100502.19
2023-03-06T03:34:17.230Z,100502.03
2023-03-06T03:39:20.392Z,100492.72
2023-03-06T03:44:23.269Z,100498.16
2023-03-06T03:49:26.623Z,100501.56
2023-03-06T03:54:30.430Z,100501.09
2023-03-06T03:59:33.885Z,100504.81
2023-03-06T04:04:45.918Z,100498.13
2023-03-06T04:09:49.441Z,100503.09
2023-03-06T04:14:53.864Z,100503.47
2023-03-06T04:19:57.780Z,100506.69
2023-03-06T04:25:00.890Z,100504.69
2023-03-06T04:30:05.510Z,100502.09
2023-03-06T04:35:10.537Z,100501.59
2023-03-06T04:40:28.367Z,100497.19
2023-03-06T04:45:32.847Z,100497.19
2023-03-06T04:50:38.275Z,100498.28
2023-03-06T04:55:41.062Z,100493.47
2023-03-06T05:00:43.944Z,100499.47
2023-03-06T05:05:46.768Z,100485.53
2023-03-06T05:10:56.997Z,100491.34
2023-03-06T05:16:05.199Z,100498.13
2023-03-06T05:21:08.258Z,100497.75
2023-03-06T05:26:13.348Z,100498.88
2023-03-06T05:31:34.989Z,100507.44
2023-03-06T05:36:38.061Z,100492.84
2023-03-06T05:41:41.544Z,100509.41
2023-03-06T05:46:44.685Z,100504.84
2023-03-06T05:51:47.872Z,100489.97
2023-03-06T05:56:51.489Z,100480.19
2023-03-06T06:01:56.095Z,100483.41
2023-03-06T06:07:01.818Z,100476.44
2023-03-06T06:12:05.070Z,100488.78
2023-03-06T06:17:08.152Z,100481.31
2023-03-06T06:22:11.933Z,100462.75
2023-03-06T06:27:15.168Z,100458.56
2023-03-06T06:32:18.953Z,100450.59
2023-03-06T06:37:21.980Z,100457.31
2023-03-06T06:42:33.748Z,100450.09
2023-03-06T06:47:42.656Z,100448.84
2023-03-06T06:52:49.777Z,100455.69
2023-03-06T06:57:53.622Z,100444.78
2023-03-06T07:02:56.545Z,100422.44
2023-03-06T07:07:59.317Z,100436.97
2023-03-06T07:18:23.422Z,100430.88
2023-03-06T07:23:26.933Z,100420.75
2023-03-06T07:28:37.614Z,100430.19
2023-03-06T07:33:54.897Z,100438.25
2023-03-06T07:39:05.896Z,100433.28
2023-03-06T07:44:10.835Z,100445.22
2023-03-06T07:49:14.193Z,100451.13
2023-03-06T07:54:17.284Z,100440.47
2023-03-06T07:59:20.207Z,100435.06
2023-03-06T08:04:28.356Z,100434.34
2023-03-06T08:09:32.473Z,100445.03
2023-03-06T08:14:35.918Z,100436.72
2023-03-06T08:19:39.108Z,100432.19
2023-03-06T08:24:42.097Z,100427.81
2023-03-06T08:29:44.841Z,100417.53
2023-03-06T08:34:49.402Z,100417.78
2023-03-06T08:39:53.273Z,100420.28
2023-03-06T08:44:56.430Z,100433.75
2023-03-06T08:50:00.720Z,100432.53
2023-03-06T08:55:07.442Z,100427.22
2023-03-06T09:00:12.965Z,100405.00
2023-03-06T09:05:16.044Z,100407.47
2023-03-06T09:10:21.919Z,100395.84
2023-03-06T09:15:25.219Z,100390.00
2023-03-06T09:20:27.986Z,100396.28
2023-03-06T09:25:30.981Z,100391.47
2023-03-06T09:30:33.884Z,100384.22
2023-03-06T09:35:45.436Z,100381.47
2023-03-06T09:51:39.747Z,100367.53
2023-03-06T09:56:49.166Z,100365.66
2023-03-06T10:02:16.486Z,100365.19
2023-03-06T10:07:24.077Z,100366.53
2023-03-06T10:12:32.893Z,100371.94
2023-03-06T10:17:40.213Z,100381.16
2023-03-06T10:23:01.212Z,100393.28
2023-03-06T10:38:48.898Z,100378.75
2023-03-06T10:49:37.815Z,100375.31
2023-03-06T10:54:43.437Z,100377.34
2023-03-06T11:06:35.217Z,100374.50
2023-03-06T11:11:38.261Z,100380.31
2023-03-06T11:16:41.282Z,100381.50
2023-03-06T11:22:01.740Z,100390.72
2023-03-06T11:32:32.216Z,100402.31
2023-03-06T11:37:49.810Z,100410.03
2023-03-06T11:43:35.361Z,100408.78
2023-03-06T11:48:53.443Z,100412.13
2023-03-06T11:54:00.136Z,100421.91
2023-03-06T12:25:49.357Z,100426.72
2023-03-06T12:42:22.706Z,100426.66
2023-03-06T12:47:29.383Z,100427.81
2023-03-06T12:52:34.124Z,100431.91
2023-03-06T12:57:36.903Z,100434.50
2023-03-06T13:08:31.774Z,100447.72
2023-03-06T13:13:44.614Z,100469.69
2023-03-06T13:18:51.768Z,100477.47
2023-03-06T13:24:04.815Z,100474.38
2023-03-06T13:29:48.401Z,100481.28
2023-03-06T13:34:52.086Z,100480.28
2023-03-06T14:01:33.025Z,100498.44
2023-03-06T14:11:54.974Z,100517.00
2023-03-06T14:16:59.626Z,100511.31
2023-03-06T14:22:03.989Z,100545.22
2023-03-06T14:27:07.331Z,100548.75
2023-03-06T14:32:11.214Z,100555.81
2023-03-06T14:37:22.113Z,100550.31
2023-03-06T14:42:28.824Z,100559.41
2023-03-06T14:47:35.256Z,100568.91
2023-03-06T14:52:39.367Z,100582.72
2023-03-06T14:57:43.459Z,100585.84
2023-03-06T15:02:47.270Z,100596.88
2023-03-06T15:07:53.983Z,100596.53
2023-03-06T15:13:07.672Z,100604.03
2023-03-06T15:18:29.011Z,100624.59
2023-03-06T15:23:40.817Z,100628.50
2023-03-06T15:28:43.626Z,100649.75
2023-03-06T15:39:43.448Z,100664.97
2023-03-06T15:44:50.696Z,100672.97
2023-03-06T15:49:53.973Z,100690.22
2023-03-06T15:54:56.871Z,100692.56
2023-03-06T16:00:01.094Z,100698.63
2023-03-06T16:05:27.534Z,100701.75
2023-03-06T16:10:33.204Z,100708.59
2023-03-06T16:15:41.643Z,100712.84
2023-03-06T16:20:45.105Z,100721.66
2023-03-06T16:25:50.479Z,100720.13
2023-03-06T16:30:53.301Z,100730.84
2023-03-06T16:35:56.239Z,100732.84
2023-03-06T16:40:59.188Z,100757.56
2023-03-06T16:46:07.621Z,100749.44
2023-03-06T16:51:16.972Z,100767.09
2023-03-06T16:56:20.888Z,100771.09
2023-03-06T17:01:23.994Z,100786.25
2023-03-06T17:06:26.965Z,100786.66
2023-03-06T17:11:30.905Z,100797.69
2023-03-06T17:16:37.080Z,100799.56
2023-03-06T17:21:40.512Z,100812.28
2023-03-06T17:26:44.546Z,100817.25
2023-03-06T17:31:47.685Z,100829.88
2023-03-06T17:36:50.987Z,100831.09
2023-03-06T17:41:54.034Z,100841.34
2023-03-06T17:46:56.925Z,100852.78
2023-03-06T17:52:01.141Z,100862.19
2023-03-06T17:57:05.885Z,100862.50
2023-03-06T18:02:10.170Z,100858.94
2023-03-06T18:07:13.275Z,100860.63
2023-03-06T18:12:16.547Z,100880.84
2023-03-06T18:17:20.461Z,100880.47
2023-03-06T18:22:23.795Z,100892.75
2023-03-06T18:27:26.617Z,100893.56
2023-03-06T18:32:29.480Z,100882.66
2023-03-06T18:37:32.205Z,100885.41
2023-03-06T18:42:34.974Z,100895.56
2023-03-06T18:47:37.791Z,100897.81
2023-03-06T18:52:44.529Z,100907.38
2023-03-06T18:57:47.360Z,100905.28
2023-03-06T19:02:50.449Z,100913.25
2023-03-06T19:07:53.417Z,100921.16
2023-03-06T19:12:56.200Z,100939.19
2023-03-06T19:17:59.066Z,100934.91
2023-03-06T19:23:01.986Z,100941.41
2023-03-06T19:28:05.282Z,100956.13
2023-03-06T19:33:09.252Z,100963.56
2023-03-06T19:38:12.474Z,100968.50
2023-03-06T19:43:15.374Z,100980.78
2023-03-06T19:48:18.258Z,100982.97
2023-03-06T19:53:21.862Z,100993.13
2023-03-06T19:58:24.539Z,100996.63
2023-03-06T20:03:27.474Z,101000.41
2023-03-06T20:08:30.453Z,101002.06
2023-03-06T20:13:33.388Z,101010.25
2023-03-06T20:18:36.153Z,101001.25
2023-03-06T20:23:39.142Z,101005.13
2023-03-06T20:28:43.019Z,101004.28
2023-03-06T20:33:49.360Z,101009.25
2023-03-06T20:38:52.138Z,101007.06
2023-03-06T20:43:54.996Z,101012.53
2023-03-06T20:48:59.720Z,101021.53
2023-03-06T20:54:05.767Z,101022.63
2023-03-06T20:59:11.728Z,101041.41
2023-03-06T21:04:15.961Z,101046.38
2023-03-06T21:09:18.754Z,101047.22
2023-03-06T21:14:21.503Z,101054.56
2023-03-06T21:19:24.312Z,101066.84
2023-03-06T21:24:27.374Z,101066.59
2023-03-06T21:29:30.869Z,101066.59
2023-03-06T21:34:33.655Z,101061.72
2023-03-06T21:39:36.489Z,101066.06
2023-03-06T21:44:39.656Z,101072.38
2023-03-06T21:49:42.509Z,101077.22
2023-03-06T21:54:45.241Z,101085.69
2023-03-06T21:59:48.183Z,101094.91
2023-03-06T22:04:52.736Z,101086.19
2023-03-06T22:09:55.587Z,101097.81
2023-03-06T22:14:58.490Z,101083.94
2023-03-06T22:20:01.319Z,101088.88
2023-03-06T22:25:06.614Z,101098.16
2023-03-06T22:30:09.953Z,101104.69
2023-03-06T22:35:12.870Z,101113.22
2023-03-06T22:40:15.939Z,101117.53
2023-03-06T22:45:18.719Z,101126.84
2023-03-06T22:50:21.506Z,101143.78
2023-03-06T22:55:24.280Z,101149.00
2023-03-06T23:00:27.353Z,101158.81
2023-03-06T23:05:30.135Z,101167.78
2023-03-06T23:10:37.958Z,101164.78
2023-03-06T23:16:03.866Z,101168.34
2023-03-06T23:21:26.587Z,101168.06
2023-03-06T23:26:49.519Z,101170.25
2023-03-06T23:31:52.230Z,101168.06
2023-03-06T23:36:55.029Z,101173.50
2023-03-06T23:41:58.443Z,101171.59
2023-03-06T23:47:01.249Z,101179.25
2023-03-06T23:52:04.548Z,101177.34
2023-03-06T23:57:07.299Z,101184.97
